Time;durP1;ratioP1;P1;durP2;ratioP2;P2;SDS_P1;SDS_P2;PMS_P1;PMS_P2;Temp;Humidity;BMP_temperature;BMP_pressure;BME280_temperature;BME280_humidity;BME280_pressure;Samples;Min_cycle;Max_cycle;Signal;HPM_P1;HPM_P2
2022/03/18 00:00:41;;;;;;;17.63;4.40;;;1.80;63.30;;;;;;4915721;29;20465;-75
2022/03/18 00:03:08;;;;;;;12.77;4.45;;;1.70;63.30;;;;;;4902495;29;20438;-75
2022/03/18 00:05:36;;;;;;;14.30;4.85;;;1.70;63.50;;;;;;4904442;29;20465;-75
2022/03/18 00:08:05;;;;;;;12.85;4.53;;;1.70;64.30;;;;;;4911157;29;20403;-75
2022/03/18 00:10:33;;;;;;;11.82;5.03;;;1.70;64.20;;;;;;4907128;29;20465;-75
2022/03/18 00:13:01;;;;;;;16.05;5.50;;;1.60;64.40;;;;;;4903963;29;20052;-75
2022/03/18 00:15:28;;;;;;;10.93;4.70;;;1.60;64.50;;;;;;4909222;29;20063;-75
2022/03/18 00:17:57;;;;;;;18.88;6.82;;;1.60;64.80;;;;;;4907653;29;20048;-75
2022/03/18 00:20:26;;;;;;;12.55;5.15;;;1.50;65.00;;;;;;4908403;29;20065;-75
2022/03/18 00:22:53;;;;;;;13.43;5.55;;;1.50;65.00;;;;;;4914260;29;20044;-75
2022/03/18 00:25:21;;;;;;;12.18;5.13;;;1.40;65.10;;;;;;4911825;29;20052;-75
2022/03/18 00:27:48;;;;;;;13.15;5.43;;;1.40;64.80;;;;;;4889772;29;20147;-74
2022/03/18 00:30:18;;;;;;;11.70;5.13;;;1.30;65.30;;;;;;4889847;29;20573;-74
2022/03/18 00:32:46;;;;;;;14.15;4.90;;;1.30;65.60;;;;;;4897326;29;20532;-74
2022/03/18 00:35:15;;;;;;;10.07;4.68;;;1.30;65.80;;;;;;4897649;29;20060;-75
2022/03/18 00:37:42;;;;;;;11.77;5.20;;;1.30;66.00;;;;;;4897319;29;20048;-74
2022/03/18 00:40:11;;;;;;;14.73;5.95;;;1.20;65.90;;;;;;4913050;29;20075;-74
2022/03/18 00:42:39;;;;;;;11.73;4.85;;;1.20;66.50;;;;;;4911092;29;20147;-74
2022/03/18 00:45:08;;;;;;;11.93;5.40;;;1.20;66.10;;;;;;4901873;29;20064;-75
2022/03/18 00:53:06;;;;;;;14.38;5.75;;;1.10;66.00;;;;;;4920971;29;20063;-74
2022/03/18 00:55:34;;;;;;;14.35;7.05;;;1.00;66.20;;;;;;4911887;29;20056;-74
2022/03/18 00:58:01;;;;;;;9.98;4.95;;;1.00;66.20;;;;;;4901644;29;20048;-75
2022/03/18 01:00:28;;;;;;;18.73;5.97;;;1.00;66.40;;;;;;4896075;29;20056;-74
2022/03/18 01:02:56;;;;;;;10.77;5.47;;;1.00;66.30;;;;;;4884686;29;20135;-74
2022/03/18 01:05:25;;;;;;;8.20;5.07;;;0.90;66.60;;;;;;4897007;29;20084;-73
2022/03/18 01:07:52;;;;;;;22.25;5.82;;;0.90;66.70;;;;;;4925607;29;20375;-74
2022/03/18 01:10:20;;;;;;;16.15;4.72;;;0.90;66.50;;;;;;4909617;29;20048;-75
2022/03/18 01:12:48;;;;;;;8.98;4.88;;;0.90;66.80;;;;;;4899427;29;20274;-75
2022/03/18 01:15:15;;;;;;;10.00;5.15;;;0.80;67.00;;;;;;4900380;29;20550;-74
2022/03/18 01:17:43;;;;;;;9.50;4.53;;;0.80;67.00;;;;;;4883800;29;20057;-74
2022/03/18 01:20:11;;;;;;;11.30;5.13;;;0.80;67.50;;;;;;4903499;29;20071;-74
2022/03/18 01:22:40;;;;;;;9.52;4.38;;;0.80;67.60;;;;;;4897040;29;20145;-74
2022/03/18 01:25:09;;;;;;;13.77;5.55;;;0.80;67.40;;;;;;4896657;29;20080;-74
2022/03/18 01:27:36;;;;;;;15.20;5.10;;;0.70;67.50;;;;;;4908213;29;20056;-74
2022/03/18 01:30:05;;;;;;;14.80;5.25;;;0.70;67.60;;;;;;4898378;29;20056;-74
2022/03/18 01:32:33;;;;;;;15.65;4.85;;;0.70;67.70;;;;;;4915592;29;20071;-75
2022/03/18 01:35:01;;;;;;;11.70;6.28;;;0.70;67.80;;;;;;4912728;29;20580;-74
2022/03/18 01:37:29;;;;;;;12.20;5.32;;;0.70;68.10;;;;;;4906305;29;20052;-75
2022/03/18 01:39:57;;;;;;;40.42;8.32;;;0.60;67.90;;;;;;4903923;29;20112;-75
2022/03/18 01:42:25;;;;;;;13.40;5.38;;;0.60;68.10;;;;;;4894896;29;20123;-74
2022/03/18 01:44:53;;;;;;;11.00;6.25;;;0.60;68.30;;;;;;4912615;29;20366;-75
2022/03/18 01:47:20;;;;;;;14.27;6.43;;;0.60;68.50;;;;;;4908558;29;20044;-75
2022/03/18 01:49:47;;;;;;;12.50;6.03;;;0.60;68.60;;;;;;4880583;29;20040;-74
2022/03/18 01:52:15;;;;;;;16.08;5.93;;;0.60;68.30;;;;;;4912460;29;20048;-75
2022/03/18 01:54:47;;;;;;;12.40;5.82;;;0.60;68.20;;;;;;4911589;29;20432;-75
2022/03/18 01:57:19;;;;;;;8.88;4.95;;;0.60;68.30;;;;;;4897954;29;20115;-75
2022/03/18 01:59:47;;;;;;;14.67;5.73;;;0.60;68.30;;;;;;4899750;29;20048;-74
2022/03/18 02:02:15;;;;;;;14.43;5.07;;;0.50;68.50;;;;;;4905943;29;20852;-74
2022/03/18 02:04:43;;;;;;;9.30;5.10;;;0.50;68.60;;;;;;4914647;29;20056;-74
2022/03/18 02:07:12;;;;;;;8.65;5.05;;;0.50;68.70;;;;;;4929395;29;20044;-75
2022/03/18 02:09:40;;;;;;;14.70;5.22;;;0.50;68.70;;;;;;4897743;29;20052;-74
2022/03/18 02:12:09;;;;;;;11.38;4.88;;;0.50;68.70;;;;;;4908499;29;20051;-74
2022/03/18 02:14:41;;;;;;;10.43;4.78;;;0.50;68.70;;;;;;4881539;29;20052;-73
2022/03/18 02:17:11;;;;;;;9.43;4.70;;;0.50;68.80;;;;;;4900525;29;20055;-74
2022/03/18 02:19:40;;;;;;;10.10;4.75;;;0.50;68.70;;;;;;4898392;29;20045;-73
2022/03/18 02:22:12;;;;;;;15.38;5.40;;;0.50;68.90;;;;;;4913031;29;20453;-74
2022/03/18 02:24:43;;;;;;;9.40;4.38;;;0.50;69.00;;;;;;4914418;29;20056;-74
2022/03/18 02:27:11;;;;;;;11.20;4.60;;;0.50;69.30;;;;;;4912647;29;20052;-74
2022/03/18 02:29:40;;;;;;;15.52;5.07;;;0.50;69.30;;;;;;4911367;29;20186;-74
2022/03/18 02:32:09;;;;;;;15.10;5.10;;;0.40;69.50;;;;;;4913351;29;20055;-74
2022/03/18 02:34:39;;;;;;;14.35;4.93;;;0.40;69.50;;;;;;4914457;29;20048;-74
2022/03/18 02:37:07;;;;;;;13.63;4.72;;;0.40;69.50;;;;;;4912948;29;20552;-74
2022/03/18 02:39:35;;;;;;;12.77;5.13;;;0.40;69.50;;;;;;4913571;29;20051;-74
2022/03/18 02:42:05;;;;;;;14.30;4.85;;;0.30;69.60;;;;;;4914771;29;20104;-74
2022/03/18 02:44:33;;;;;;;10.43;4.43;;;0.30;69.90;;;;;;4913248;29;20151;-74
2022/03/18 02:47:04;;;;;;;15.35;5.65;;;0.30;70.00;;;;;;4928372;29;20060;-73
2022/03/18 02:49:32;;;;;;;14.32;4.93;;;0.30;70.00;;;;;;4894075;29;20513;-74
2022/03/18 02:51:59;;;;;;;17.92;5.00;;;0.30;70.10;;;;;;4924584;29;20076;-73
2022/03/18 02:54:27;;;;;;;10.55;5.35;;;0.20;71.20;;;;;;4905659;29;20056;-74
2022/03/18 02:56:54;;;;;;;16.33;5.25;;;0.20;70.40;;;;;;4913170;29;20813;-73
2022/03/18 02:59:23;;;;;;;15.75;6.03;;;0.20;70.70;;;;;;4913174;29;20071;-75
2022/03/18 03:01:50;;;;;;;18.80;5.43;;;0.20;71.20;;;;;;4900528;29;20060;-74
2022/03/18 03:04:18;;;;;;;14.88;5.40;;;0.20;70.80;;;;;;4914490;29;20103;-74
2022/03/18 03:09:31;;;;;;;11.13;4.97;;;0.20;70.80;;;;;;4911507;29;20502;-75
2022/03/18 03:11:58;;;;;;;17.30;4.80;;;0.20;70.90;;;;;;4901863;29;20425;-75
2022/03/18 03:14:27;;;;;;;18.20;4.80;;;0.10;70.70;;;;;;4910152;29;20135;-75
2022/03/18 03:16:55;;;;;;;16.23;5.18;;;0.10;71.20;;;;;;4901005;29;20982;-74
2022/03/18 03:19:22;;;;;;;23.65;6.90;;;0.10;71.20;;;;;;4896724;29;20060;-75
2022/03/18 03:21:50;;;;;;;17.10;5.30;;;0.00;71.30;;;;;;4897786;29;20056;-75
2022/03/18 03:24:17;;;;;;;13.52;5.10;;;0.00;71.60;;;;;;4899755;29;20135;-75
2022/03/18 03:26:47;;;;;;;16.27;4.82;;;0.00;71.50;;;;;;4912077;29;20522;-75
2022/03/18 03:29:15;;;;;;;11.50;4.50;;;0.00;71.60;;;;;;4899619;29;20086;-75
2022/03/18 03:31:43;;;;;;;10.98;4.47;;;0.00;71.80;;;;;;4908314;29;20052;-74
2022/03/18 03:34:11;;;;;;;14.50;4.70;;;0.00;71.80;;;;;;4897937;29;20060;-74
2022/03/18 03:36:38;;;;;;;17.23;4.28;;;0.00;71.70;;;;;;4902222;29;20670;-75
2022/03/18 03:39:05;;;;;;;9.50;4.47;;;0.00;71.70;;;;;;4898783;29;20503;-74
2022/03/18 03:41:33;;;;;;;15.80;4.32;;;-0.10;71.80;;;;;;4903873;29;20441;-75
2022/03/18 03:44:00;;;;;;;13.82;4.63;;;-0.10;71.80;;;;;;4913815;29;20052;-76
2022/03/18 03:46:28;;;;;;;16.73;4.90;;;-0.10;72.20;;;;;;4904721;29;20048;-75
2022/03/18 03:48:57;;;;;;;20.10;6.22;;;-0.10;72.40;;;;;;4909888;29;20139;-76
2022/03/18 03:51:24;;;;;;;14.80;4.70;;;-0.10;72.50;;;;;;4883804;29;20044;-75
2022/03/18 03:53:52;;;;;;;20.65;4.53;;;-0.20;72.60;;;;;;4907908;29;20115;-75
2022/03/18 03:56:19;;;;;;;17.48;5.53;;;-0.20;72.90;;;;;;4915026;29;20092;-75
2022/03/18 03:58:47;;;;;;;15.98;4.82;;;-0.20;72.80;;;;;;4897921;29;20059;-73
2022/03/18 04:01:14;;;;;;;24.23;5.70;;;-0.20;73.10;;;;;;4906707;29;20058;-69
2022/03/18 04:03:42;;;;;;;16.42;5.15;;;-0.30;73.30;;;;;;4915630;29;20530;-70
2022/03/18 04:06:10;;;;;;;19.73;4.95;;;-0.30;73.20;;;;;;4909255;29;20059;-69
2022/03/18 04:08:38;;;;;;;16.65;4.90;;;-0.30;73.40;;;;;;4912486;29;20056;-70
2022/03/18 04:11:05;;;;;;;20.15;4.63;;;-0.20;73.70;;;;;;4915870;29;20086;-70
2022/03/18 04:13:33;;;;;;;23.55;5.25;;;-0.30;73.60;;;;;;4912203;29;20462;-70
2022/03/18 04:16:00;;;;;;;25.52;4.90;;;-0.30;73.60;;;;;;4904075;29;20048;-71
2022/03/18 04:18:27;;;;;;;20.20;4.43;;;-0.30;74.30;;;;;;4912541;29;20398;-71
2022/03/18 04:20:57;;;;;;;23.40;4.35;;;-0.30;74.30;;;;;;4906155;29;20100;-70
2022/03/18 04:23:26;;;;;;;19.48;4.43;;;-0.30;74.30;;;;;;4895252;29;20052;-70
2022/03/18 04:25:53;;;;;;;13.07;4.60;;;-0.30;74.20;;;;;;4899166;29;20063;-69
2022/03/18 04:28:22;;;;;;;18.33;4.57;;;-0.30;74.20;;;;;;4905161;29;20520;-71
2022/03/18 04:30:49;;;;;;;19.88;4.25;;;-0.30;74.20;;;;;;4914696;29;20052;-69
2022/03/18 04:33:17;;;;;;;24.08;5.10;;;-0.30;74.50;;;;;;4908442;29;20417;-69
2022/03/18 04:35:44;;;;;;;19.63;4.57;;;-0.30;74.80;;;;;;4907667;29;20127;-70
2022/03/18 04:38:12;;;;;;;29.27;4.13;;;-0.20;75.00;;;;;;4901320;29;20071;-70
2022/03/18 04:40:41;;;;;;;24.60;5.40;;;-0.20;75.10;;;;;;4912349;29;21765;-69
2022/03/18 04:43:08;;;;;;;13.88;4.47;;;-0.20;75.00;;;;;;4907060;29;20079;-69
2022/03/18 04:45:37;;;;;;;27.33;4.53;;;-0.20;75.20;;;;;;4913273;29;20052;-69
2022/03/18 04:48:05;;;;;;;25.25;5.25;;;-0.10;75.40;;;;;;4916369;29;20056;-66
2022/03/18 04:50:33;;;;;;;28.25;6.15;;;-0.10;75.30;;;;;;4914099;29;20130;-67
2022/03/18 04:53:01;;;;;;;21.63;4.78;;;-0.10;75.60;;;;;;4921603;29;20048;-68
2022/03/18 04:55:31;;;;;;;30.17;5.43;;;-0.10;75.90;;;;;;4907914;29;20052;-74
2022/03/18 04:58:05;;;;;;;22.42;5.88;;;0.00;76.20;;;;;;4911124;29;20044;-68
2022/03/18 05:00:35;;;;;;;25.13;4.75;;;0.00;76.00;;;;;;4897682;29;20426;-68
2022/03/18 05:03:03;;;;;;;29.55;5.20;;;0.00;76.10;;;;;;4896205;29;20425;-69
2022/03/18 05:05:31;;;;;;;14.25;4.88;;;0.10;76.10;;;;;;4912832;29;20056;-74
2022/03/18 05:08:00;;;;;;;31.17;5.22;;;0.10;76.20;;;;;;4914718;29;20048;-75
2022/03/18 05:10:29;;;;;;;18.17;4.90;;;0.10;76.40;;;;;;4916719;29;20048;-73
2022/03/18 05:12:57;;;;;;;34.88;6.45;;;0.10;77.00;;;;;;4913704;29;20051;-76
2022/03/18 05:15:26;;;;;;;29.25;5.47;;;0.10;77.90;;;;;;4906763;29;20123;-78
2022/03/18 05:17:55;;;;;;;34.35;5.97;;;0.10;77.10;;;;;;4911280;29;20076;-77
2022/03/18 05:20:22;;;;;;;26.80;5.05;;;0.10;76.90;;;;;;4909595;29;20477;-77
2022/03/18 05:22:51;;;;;;;31.23;5.95;;;0.20;76.90;;;;;;4907780;29;20083;-71
2022/03/18 05:25:18;;;;;;;22.77;5.72;;;0.20;77.50;;;;;;4897403;29;20147;-70
2022/03/18 05:27:46;;;;;;;25.00;6.85;;;0.30;78.20;;;;;;4913852;29;20107;-70
2022/03/18 05:30:16;;;;;;;34.55;5.95;;;0.40;78.10;;;;;;4914650;29;20052;-71
2022/03/18 05:32:45;;;;;;;30.10;6.40;;;0.50;77.50;;;;;;4913002;29;20099;-69
2022/03/18 05:35:16;;;;;;;22.55;6.38;;;0.60;77.90;;;;;;4912150;29;20048;-70
2022/03/18 05:37:43;;;;;;;27.80;6.32;;;0.70;76.90;;;;;;4914156;29;20064;-70
2022/03/18 05:40:12;;;;;;;43.00;8.20;;;0.70;76.70;;;;;;4914278;29;20044;-70
2022/03/18 05:42:41;;;;;;;37.65;6.93;;;0.80;77.00;;;;;;4914214;29;20083;-69
2022/03/18 05:45:10;;;;;;;41.97;7.50;;;0.90;77.00;;;;;;4926623;29;20158;-71
2022/03/18 05:47:37;;;;;;;36.47;6.53;;;1.00;76.70;;;;;;4896038;29;20064;-70
2022/03/18 05:50:08;;;;;;;25.77;5.85;;;1.00;76.50;;;;;;4907745;29;20055;-69
2022/03/18 05:52:37;;;;;;;25.92;6.15;;;1.10;78.20;;;;;;4915056;29;20048;-76
2022/03/18 05:55:05;;;;;;;38.20;7.68;;;1.10;77.60;;;;;;4914470;29;20055;-77
2022/03/18 05:57:32;;;;;;;35.10;6.90;;;1.20;76.30;;;;;;4915141;29;20066;-76
2022/03/18 06:00:01;;;;;;;32.30;7.78;;;1.30;75.50;;;;;;4895046;29;20049;-77
2022/03/18 06:02:31;;;;;;;36.45;7.07;;;1.40;75.10;;;;;;4896573;29;20067;-71
2022/03/18 06:04:58;;;;;;;36.97;6.07;;;1.50;75.00;;;;;;4896578;29;20112;-69
2022/03/18 06:07:27;;;;;;;34.58;7.47;;;1.60;74.40;;;;;;4897010;29;20087;-70
2022/03/18 06:12:42;;;;;;;40.92;7.13;;;1.70;73.10;;;;;;4879297;29;20052;-76
2022/03/18 06:15:10;;;;;;;43.53;7.60;;;1.70;72.70;;;;;;4928223;29;20056;-78
2022/03/18 06:17:37;;;;;;;34.28;7.45;;;1.80;72.90;;;;;;4913252;29;20052;-75
2022/03/18 06:20:07;;;;;;;43.47;8.55;;;1.80;73.20;;;;;;4915291;29;20052;-77
2022/03/18 06:22:36;;;;;;;37.45;7.53;;;1.80;73.10;;;;;;4911889;29;20062;-77
2022/03/18 06:25:04;;;;;;;27.08;6.95;;;1.80;73.40;;;;;;4913159;29;21596;-76
2022/03/18 06:27:31;;;;;;;40.05;7.68;;;1.90;73.90;;;;;;4913525;29;20060;-76
2022/03/18 06:29:59;;;;;;;49.45;8.50;;;1.90;74.20;;;;;;4913611;29;20048;-76
2022/03/18 06:32:26;;;;;;;50.13;8.35;;;2.00;72.90;;;;;;4911207;29;20059;-76
2022/03/18 06:34:55;;;;;;;38.03;8.68;;;2.00;73.00;;;;;;4926206;29;20139;-77
2022/03/18 06:37:22;;;;;;;47.67;9.57;;;2.10;72.40;;;;;;4896727;29;20465;-76
2022/03/18 06:39:51;;;;;;;44.13;7.97;;;2.20;72.10;;;;;;4896619;29;20067;-76
2022/03/18 06:42:19;;;;;;;48.60;8.35;;;2.20;71.60;;;;;;4912734;29;20152;-76
2022/03/18 06:44:46;;;;;;;43.95;8.50;;;2.30;71.30;;;;;;4913244;29;20537;-77
2022/03/18 06:47:14;;;;;;;47.03;9.15;;;2.40;71.40;;;;;;4914430;29;20162;-76
2022/03/18 06:49:42;;;;;;;56.00;11.05;;;2.50;70.60;;;;;;4925665;29;20421;-77
2022/03/18 06:52:09;;;;;;;41.83;8.25;;;2.60;71.40;;;;;;4905378;29;20112;-77
2022/03/18 06:54:36;;;;;;;44.53;9.82;;;2.70;70.30;;;;;;4913239;29;20052;-78
2022/03/18 06:57:06;;;;;;;43.17;8.98;;;2.70;70.00;;;;;;4914542;29;20094;-76
2022/03/18 06:59:34;;;;;;;41.80;10.50;;;2.80;70.10;;;;;;4914123;29;20521;-76
2022/03/18 07:02:01;;;;;;;51.22;9.10;;;3.10;70.60;;;;;;4898173;29;20078;-77
2022/03/18 07:04:29;;;;;;;46.80;10.63;;;4.20;70.40;;;;;;4914052;29;20179;-79
2022/03/18 07:06:56;;;;;;;68.57;11.20;;;5.70;66.20;;;;;;4918144;29;20068;-71
2022/03/18 07:09:24;;;;;;;48.97;10.95;;;7.10;63.00;;;;;;4901017;29;20048;-68
2022/03/18 07:11:52;;;;;;;71.00;12.00;;;8.40;58.10;;;;;;4916470;29;20123;-69
2022/03/18 07:14:21;;;;;;;53.58;11.25;;;9.30;55.50;;;;;;4918230;29;20131;-68
2022/03/18 07:19:33;;;;;;;56.20;11.57;;;11.00;52.00;;;;;;4910769;29;20147;-69
2022/03/18 07:22:00;;;;;;;54.92;12.00;;;11.80;51.20;;;;;;4917396;29;20078;-69
2022/03/18 07:24:28;;;;;;;51.60;11.32;;;12.60;48.90;;;;;;4896929;29;20048;-69
2022/03/18 07:26:55;;;;;;;35.05;9.50;;;12.90;47.70;;;;;;4930112;29;20107;-69
2022/03/18 07:29:25;;;;;;;52.53;10.90;;;13.10;46.80;;;;;;4905530;29;20115;-69
2022/03/18 07:31:55;;;;;;;66.47;10.25;;;13.70;45.50;;;;;;4910483;29;20064;-70
2022/03/18 07:34:22;;;;;;;62.83;12.05;;;13.80;44.80;;;;;;4920493;29;20456;-69
2022/03/18 07:36:50;;;;;;;54.25;10.63;;;14.20;44.60;;;;;;4921812;29;20420;-68
2022/03/18 07:39:18;;;;;;;58.05;12.50;;;14.60;43.40;;;;;;4914409;29;20067;-70
2022/03/18 07:41:45;;;;;;;61.15;11.68;;;14.70;42.70;;;;;;4918888;29;20054;-69
2022/03/18 07:44:13;;;;;;;52.03;11.43;;;14.70;43.00;;;;;;4914921;29;20051;-69
2022/03/18 07:46:42;;;;;;;53.80;11.10;;;14.60;42.80;;;;;;4928113;29;20056;-70
2022/03/18 07:49:09;;;;;;;47.97;10.65;;;14.50;42.50;;;;;;4932944;29;20052;-70
2022/03/18 07:51:36;;;;;;;48.75;11.82;;;14.40;43.00;;;;;;4920754;29;20429;-70
2022/03/18 07:54:04;;;;;;;69.38;11.30;;;14.50;42.90;;;;;;4929230;29;20056;-71
2022/03/18 07:56:32;;;;;;;49.53;10.15;;;14.60;42.90;;;;;;4912334;29;20057;-68
2022/03/18 07:59:00;;;;;;;56.20;10.90;;;14.70;42.60;;;;;;4928902;29;20178;-68
2022/03/18 08:01:29;;;;;;;67.20;12.75;;;15.00;42.30;;;;;;4935997;29;20106;-68
2022/03/18 08:03:58;;;;;;;54.35;11.05;;;15.10;41.90;;;;;;4936158;29;20052;-70
2022/03/18 08:06:25;;;;;;;51.80;10.43;;;15.20;41.60;;;;;;4924010;29;20132;-68
2022/03/18 08:08:52;;;;;;;49.65;10.25;;;15.60;41.20;;;;;;4934221;29;20044;-68
2022/03/18 08:11:20;;;;;;;43.78;10.73;;;15.90;41.30;;;;;;4910030;29;20520;-68
2022/03/18 08:13:49;;;;;;;69.10;11.15;;;16.30;40.50;;;;;;4918661;29;20096;-67
2022/03/18 08:16:17;;;;;;;64.95;11.82;;;16.60;39.80;;;;;;4913738;29;20079;-69
2022/03/18 08:18:44;;;;;;;55.80;10.90;;;17.20;39.00;;;;;;4904487;29;20492;-74
2022/03/18 08:21:15;;;;;;;49.72;11.25;;;17.50;38.60;;;;;;4897753;29;20525;-73
2022/03/18 08:23:43;;;;;;;59.72;11.18;;;17.40;38.60;;;;;;4914354;29;20107;-73
2022/03/18 08:26:10;;;;;;;62.88;12.27;;;17.80;38.90;;;;;;4916387;29;20052;-73
2022/03/18 08:28:38;;;;;;;65.97;11.93;;;18.00;37.80;;;;;;4912100;29;20060;-74
2022/03/18 08:31:05;;;;;;;47.45;10.55;;;17.80;38.20;;;;;;4898823;29;20103;-74
2022/03/18 08:33:32;;;;;;;61.45;11.32;;;17.90;37.80;;;;;;4915965;29;20064;-74
2022/03/18 08:36:00;;;;;;;54.88;10.90;;;18.30;37.70;;;;;;4930910;29;20508;-75
2022/03/18 08:38:28;;;;;;;52.13;10.35;;;18.60;37.50;;;;;;4916365;29;20064;-75
2022/03/18 08:40:56;;;;;;;50.97;10.35;;;19.30;36.70;;;;;;4914990;29;20138;-73
2022/03/18 08:43:23;;;;;;;48.22;10.45;;;19.60;36.20;;;;;;4914793;29;20068;-75
2022/03/18 08:45:51;;;;;;;60.55;10.55;;;19.80;35.70;;;;;;4916033;29;20508;-76
2022/03/18 08:48:18;;;;;;;53.95;11.43;;;20.10;35.50;;;;;;4916344;29;20169;-75
2022/03/18 08:50:45;;;;;;;49.35;11.35;;;20.30;35.50;;;;;;4914272;29;20500;-74
2022/03/18 08:53:13;;;;;;;44.60;9.20;;;20.20;35.80;;;;;;4899920;29;20143;-74
2022/03/18 08:55:42;;;;;;;57.17;9.77;;;20.10;36.30;;;;;;4912199;29;20048;-74
2022/03/18 08:58:09;;;;;;;44.40;9.27;;;20.50;35.40;;;;;;4898607;29;20505;-73
2022/03/18 09:00:37;;;;;;;47.30;10.80;;;20.40;35.10;;;;;;4914969;29;20052;-74
2022/03/18 09:03:04;;;;;;;58.42;9.70;;;20.50;35.40;;;;;;4915210;29;20142;-72
2022/03/18 09:05:32;;;;;;;41.53;8.80;;;20.70;34.00;;;;;;4915865;29;20059;-73
2022/03/18 09:07:59;;;;;;;35.83;7.90;;;21.20;33.60;;;;;;4915619;29;20063;-74
2022/03/18 09:10:27;;;;;;;32.88;7.40;;;21.40;33.60;;;;;;4915652;29;20154;-74
2022/03/18 09:12:59;;;;;;;41.03;9.23;;;21.20;33.30;;;;;;4915229;29;20590;-75
2022/03/18 09:15:26;;;;;;;31.50;8.75;;;21.30;32.90;;;;;;4921166;29;20512;-68
2022/03/18 09:17:54;;;;;;;31.88;8.95;;;21.60;33.20;;;;;;4916973;29;20596;-68
2022/03/18 09:20:22;;;;;;;25.63;8.63;;;21.40;32.80;;;;;;4912357;29;20052;-69
2022/03/18 09:22:49;;;;;;;21.48;6.97;;;21.40;32.60;;;;;;4913954;29;20047;-67
2022/03/18 09:25:17;;;;;;;26.20;8.13;;;20.90;32.30;;;;;;4913897;29;20055;-67
2022/03/18 09:27:44;;;;;;;22.90;6.50;;;20.90;33.10;;;;;;4914170;29;20055;-69
2022/03/18 09:30:15;;;;;;;15.10;5.60;;;21.40;32.20;;;;;;4915226;29;20107;-67
2022/03/18 09:32:43;;;;;;;14.85;3.90;;;21.80;30.80;;;;;;4914957;29;20056;-68
2022/03/18 09:35:11;;;;;;;14.95;4.82;;;21.70;30.00;;;;;;4915086;29;20052;-68
2022/03/18 09:37:38;;;;;;;17.25;5.28;;;21.40;30.50;;;;;;4915007;29;20599;-68
2022/03/18 09:40:08;;;;;;;17.17;5.35;;;21.20;31.40;;;;;;4915017;29;20048;-68
2022/03/18 09:42:36;;;;;;;20.45;5.70;;;21.20;31.10;;;;;;4929447;29;20094;-68
2022/03/18 09:45:04;;;;;;;6.03;3.33;;;20.90;31.60;;;;;;4914829;29;20062;-68
2022/03/18 09:47:33;;;;;;;19.48;4.90;;;20.80;31.40;;;;;;4913632;29;20059;-68
2022/03/18 09:50:00;;;;;;;16.55;5.25;;;20.80;31.10;;;;;;4913578;29;20567;-68
2022/03/18 09:52:28;;;;;;;20.52;6.20;;;20.20;31.60;;;;;;4913395;29;20256;-68
2022/03/18 09:54:55;;;;;;;23.00;6.00;;;19.90;32.50;;;;;;4913421;29;20052;-69
2022/03/18 09:57:22;;;;;;;18.85;5.70;;;19.20;33.00;;;;;;4914613;29;20130;-69
2022/03/18 09:59:50;;;;;;;21.42;6.10;;;18.80;35.00;;;;;;4914500;29;20052;-67
2022/03/18 10:02:29;;;;;;;10.85;4.50;;;18.40;34.00;;;;;;4913034;29;20147;-68
2022/03/18 10:05:00;;;;;;;6.60;3.22;;;18.00;34.00;;;;;;4914542;29;20059;-68
2022/03/18 10:07:29;;;;;;;6.57;3.20;;;17.80;33.20;;;;;;4914434;29;20060;-68
2022/03/18 10:10:14;;;;;;;17.67;4.07;;;18.10;33.40;;;;;;4912175;29;20087;-68
2022/03/18 10:12:47;;;;;;;7.95;4.05;;;18.70;34.20;;;;;;4931346;29;20384;-68
2022/03/18 10:15:17;;;;;;;12.77;4.03;;;19.70;32.20;;;;;;4924341;29;20064;-68
2022/03/18 10:17:49;;;;;;;6.00;3.58;;;20.40;31.90;;;;;;4913671;29;20052;-70
2022/03/18 10:20:32;;;;;;;5.22;2.83;;;20.80;30.70;;;;;;4899479;29;20048;-69
2022/03/18 10:23:06;;;;;;;6.05;3.17;;;20.80;30.00;;;;;;4914661;29;20056;-68
2022/03/18 10:25:39;;;;;;;8.93;2.88;;;20.80;30.50;;;;;;4914668;29;20084;-69
2022/03/18 10:28:09;;;;;;;9.45;3.20;;;21.10;30.20;;;;;;4908328;29;20107;-69
2022/03/18 10:30:37;;;;;;;3.65;2.70;;;21.70;30.90;;;;;;4914688;29;20509;-69
2022/03/18 10:33:06;;;;;;;5.57;3.08;;;21.70;29.60;;;;;;4912806;29;20052;-68
2022/03/18 10:38:33;;;;;;;12.20;4.00;;;21.50;29.20;;;;;;4911471;29;20618;-67
2022/03/18 10:41:07;;;;;;;10.75;4.07;;;20.70;30.10;;;;;;4918331;29;20059;-67
2022/03/18 10:43:53;;;;;;;8.93;3.60;;;20.70;30.30;;;;;;4924723;29;20456;-68
2022/03/18 10:46:21;;;;;;;8.32;3.60;;;20.30;31.70;;;;;;4936886;29;20517;-67
2022/03/18 10:49:04;;;;;;;8.75;3.28;;;19.80;31.30;;;;;;4923239;29;20048;-69
2022/03/18 10:51:35;;;;;;;10.02;5.18;;;19.60;32.00;;;;;;4916715;29;20127;-67
2022/03/18 10:54:02;;;;;;;11.13;4.30;;;19.40;32.20;;;;;;4900843;29;20535;-74
2022/03/18 10:56:29;;;;;;;7.82;3.88;;;19.50;33.20;;;;;;4917916;29;20056;-73
2022/03/18 10:58:56;;;;;;;7.55;3.80;;;19.70;32.50;;;;;;4916695;29;20505;-74
2022/03/18 11:01:25;;;;;;;7.45;3.63;;;20.00;31.80;;;;;;4916690;29;20063;-75
2022/03/18 11:03:53;;;;;;;11.93;3.90;;;20.10;31.10;;;;;;4917880;29;20044;-72
2022/03/18 11:06:21;;;;;;;7.70;3.90;;;20.40;31.90;;;;;;4920364;29;20048;-75
2022/03/18 11:08:50;;;;;;;12.60;3.80;;;20.40;31.40;;;;;;4916452;29;20135;-76
2022/03/18 11:11:19;;;;;;;12.32;4.03;;;19.80;31.00;;;;;;4920770;29;20471;-76
2022/03/18 11:13:50;;;;;;;13.15;3.90;;;18.70;32.30;;;;;;4936777;29;20059;-76
2022/03/18 11:16:23;;;;;;;8.27;3.35;;;18.10;32.90;;;;;;4927814;29;20052;-74
2022/03/18 11:18:51;;;;;;;10.30;3.40;;;17.90;32.50;;;;;;4936717;29;20540;-74
2022/03/18 11:21:21;;;;;;;6.93;3.05;;;17.60;32.40;;;;;;4934363;29;20047;-75
2022/03/18 11:23:51;;;;;;;10.25;4.63;;;17.80;34.20;;;;;;4916432;29;20055;-75
2022/03/18 11:26:20;;;;;;;14.82;5.13;;;18.30;33.70;;;;;;4915591;29;20048;-76
2022/03/18 11:29:06;;;;;;;4.50;2.38;;;18.90;33.40;;;;;;4917785;29;20056;-74
2022/03/18 11:31:34;;;;;;;8.65;3.65;;;19.30;31.50;;;;;;4917445;29;20540;-75
2022/03/18 11:34:12;;;;;;;7.47;3.05;;;19.70;31.10;;;;;;4917546;29;20052;-75
2022/03/18 11:36:47;;;;;;;5.22;3.10;;;20.00;30.20;;;;;;4917540;29;20063;-74
2022/03/18 11:39:22;;;;;;;15.52;4.15;;;20.40;30.40;;;;;;4915917;29;20063;-76
2022/03/18 11:41:53;;;;;;;14.82;3.95;;;21.00;30.90;;;;;;4912884;29;20068;-75
2022/03/18 11:44:43;;;;;;;11.13;3.83;;;21.70;30.40;;;;;;4910514;29;20061;-76
2022/03/18 11:47:40;;;;;;;14.50;3.97;;;22.00;30.00;;;;;;4881437;29;20150;-73
2022/03/18 11:50:41;;;;;;;12.50;3.78;;;21.90;30.00;;;;;;4915729;29;20064;-74
2022/03/18 11:53:13;;;;;;;11.20;3.30;;;21.90;30.20;;;;;;4908416;29;20154;-74
2022/03/18 11:55:45;;;;;;;11.90;3.22;;;22.60;29.40;;;;;;4916960;29;20592;-74
2022/03/18 11:58:29;;;;;;;7.95;3.40;;;22.80;28.90;;;;;;4915090;29;20104;-75
2022/03/18 12:00:57;;;;;;;15.32;3.55;;;22.10;29.10;;;;;;4919255;29;20052;-74
2022/03/18 12:03:36;;;;;;;10.07;3.45;;;22.00;29.60;;;;;;4910859;29;20055;-76
2022/03/18 12:06:03;;;;;;;7.90;3.13;;;21.50;29.60;;;;;;4930996;29;20060;-75
2022/03/18 12:08:58;;;;;;;5.35;2.95;;;21.10;29.60;;;;;;4914344;29;20044;-75
2022/03/18 12:11:37;;;;;;;5.47;2.85;;;20.40;30.40;;;;;;4918775;29;20481;-75
2022/03/18 12:14:10;;;;;;;6.88;2.50;;;19.80;30.30;;;;;;4930843;29;20076;-74
2022/03/18 12:16:38;;;;;;;4.63;2.88;;;19.50;30.40;;;;;;4924650;29;20056;-75
2022/03/18 12:19:12;;;;;;;6.85;2.83;;;20.10;30.00;;;;;;4919013;29;20048;-76
2022/03/18 12:21:44;;;;;;;6.35;3.25;;;20.80;29.80;;;;;;4901238;29;20055;-74
2022/03/18 12:24:14;;;;;;;10.35;4.30;;;21.50;29.30;;;;;;4916105;29;20059;-75
2022/03/18 12:26:42;;;;;;;6.07;3.58;;;21.90;29.20;;;;;;4915986;29;20071;-75
2022/03/18 12:29:18;;;;;;;6.88;4.03;;;22.00;29.20;;;;;;4915319;29;20052;-74
2022/03/18 12:31:46;;;;;;;14.18;5.28;;;22.50;28.90;;;;;;4916961;29;20103;-76
2022/03/18 12:34:15;;;;;;;15.73;4.70;;;22.60;28.80;;;;;;4915920;29;20056;-76
2022/03/18 12:36:47;;;;;;;6.78;3.72;;;22.10;28.70;;;;;;4913066;29;20055;-75
2022/03/18 12:39:15;;;;;;;7.50;3.20;;;21.10;29.20;;;;;;4897928;29;20052;-75
2022/03/18 12:41:45;;;;;;;4.15;2.80;;;19.90;29.80;;;;;;4903412;29;20052;-76
2022/03/18 12:44:12;;;;;;;8.15;3.53;;;18.50;31.60;;;;;;4927695;29;20114;-76
2022/03/18 12:46:43;;;;;;;7.57;2.63;;;17.70;32.30;;;;;;4923479;29;20079;-76
2022/03/18 12:49:16;;;;;;;5.65;3.05;;;17.70;32.80;;;;;;4907847;29;20058;-76
2022/03/18 12:51:52;;;;;;;9.52;4.05;;;17.80;32.60;;;;;;4895916;29;20052;-77
2022/03/18 12:54:21;;;;;;;5.35;3.63;;;17.70;32.30;;;;;;4896077;29;20064;-77
2022/03/18 12:57:09;;;;;;;11.45;4.63;;;18.10;32.50;;;;;;4885296;29;20051;-76
2022/03/18 12:59:41;;;;;;;11.35;3.85;;;18.70;32.00;;;;;;4913757;29;20576;-77
2022/03/18 13:02:12;;;;;;;7.05;2.90;;;19.30;31.40;;;;;;4904347;29;20045;-78
2022/03/18 13:04:43;;;;;;;9.45;3.53;;;20.10;30.60;;;;;;4908753;29;20051;-70
2022/03/18 13:07:11;;;;;;;6.70;3.28;;;21.20;29.80;;;;;;4915636;29;20055;-70